Time;durP1;ratioP1;P1;durP2;ratioP2;P2;SDS_P1;SDS_P2;PMS_P1;PMS_P2;Temp;Humidity;BMP_temperature;BMP_pressure;BME280_temperature;BME280_humidity;BME280_pressure;Samples;Min_cycle;Max_cycle;Signal;HPM_P1;HPM_P2
2022/09/02 00:01:02;;;;;;;4.28;1.67;;;15.30;86.80;;;;;;5073217;28;20119;-61
2022/09/02 00:03:34;;;;;;;2.42;1.45;;;14.90;89.50;;;;;;5073574;28;20123;-62
2022/09/02 00:06:01;;;;;;;3.28;1.40;;;15.60;83.60;;;;;;5073574;28;20446;-61
2022/09/02 00:08:30;;;;;;;7.07;1.60;;;15.50;84.00;;;;;;5073432;28;20036;-61
2022/09/02 00:10:57;;;;;;;2.00;1.30;;;15.60;95.50;;;;;;5073332;28;20048;-61
2022/09/02 00:13:24;;;;;;;4.60;1.40;;;14.20;95.10;;;;;;5073117;28;20114;-60
2022/09/02 00:15:51;;;;;;;6.15;1.50;;;;;;;;;;5073149;28;20044;-61
2022/09/02 00:18:17;;;;;;;3.63;1.55;;;16.30;96.10;;;;;;5073468;28;20074;-61
2022/09/02 00:20:44;;;;;;;4.53;1.73;;;14.10;91.30;;;;;;5073202;28;20050;-61
2022/09/02 00:23:13;;;;;;;3.90;1.65;;;15.50;96.30;;;;;;5072995;28;20503;-61
2022/09/02 00:25:39;;;;;;;3.90;1.23;;;14.70;96.40;;;;;;5073115;28;20052;-61
2022/09/02 00:28:07;;;;;;;4.05;1.27;;;16.00;96.90;;;;;;5073355;28;20040;-61
2022/09/02 00:30:34;;;;;;;1.70;1.30;;;15.20;87.80;;;;;;5071764;28;20480;-61
2022/09/02 00:33:01;;;;;;;4.22;1.38;;;14.30;96.90;;;;;;5073228;28;20625;-61
2022/09/02 00:35:27;;;;;;;6.45;1.38;;;15.30;97.90;;;;;;5073341;28;20369;-58
2022/09/02 00:37:57;;;;;;;4.35;1.45;;;15.70;98.00;;;;;;5073121;28;20037;-59
2022/09/02 00:40:23;;;;;;;4.57;1.63;;;15.20;98.00;;;;;;5073125;28;20033;-58
2022/09/02 00:42:50;;;;;;;1.88;1.30;;;15.00;92.20;;;;;;5071607;28;20105;-58
2022/09/02 00:45:18;;;;;;;4.88;1.40;;;15.00;90.60;;;;;;5072785;28;20043;-58
2022/09/02 00:47:46;;;;;;;8.38;1.40;;;14.30;98.70;;;;;;5073058;28;20365;-58
2022/09/02 00:50:15;;;;;;;4.40;1.70;;;14.80;99.00;;;;;;5072909;28;20035;-58
2022/09/02 00:52:52;;;;;;;2.35;1.40;;;15.00;99.40;;;;;;5073086;28;20083;-58
2022/09/02 00:55:29;;;;;;;3.40;1.40;;;14.90;91.40;;;;;;5071875;28;20048;-58
2022/09/02 00:58:08;;;;;;;1.88;1.35;;;15.10;99.50;;;;;;5072803;28;20036;-58
2022/09/02 01:00:38;;;;;;;5.35;1.42;;;15.00;99.90;;;;;;5075552;28;20438;-58
2022/09/02 01:03:09;;;;;;;5.22;1.55;;;15.00;99.90;;;;;;5076747;28;20047;-58
2022/09/02 01:05:38;;;;;;;2.33;1.52;;;14.90;99.90;;;;;;5076928;28;20045;-58
2022/09/02 01:08:06;;;;;;;6.20;1.55;;;;;;;;;;5076629;28;20033;-58
2022/09/02 01:10:33;;;;;;;2.70;1.55;;;14.70;93.40;;;;;;5076960;28;20058;-58
2022/09/02 01:13:06;;;;;;;9.30;1.60;;;15.20;93.30;;;;;;5077249;28;20033;-58
2022/09/02 01:15:37;;;;;;;5.30;1.40;;;13.50;95.50;;;;;;5076975;28;20040;-58
2022/09/02 01:18:06;;;;;;;2.03;1.42;;;15.60;99.90;;;;;;5076371;28;20438;-58
2022/09/02 01:20:32;;;;;;;2.80;1.40;;;14.20;99.90;;;;;;5076683;28;20037;-58
2022/09/02 01:23:01;;;;;;;5.00;1.70;;;14.70;94.20;;;;;;5076739;28;20040;-58
2022/09/02 01:25:31;;;;;;;3.00;1.42;;;14.80;99.90;;;;;;5076439;28;20037;-58
2022/09/02 01:28:03;;;;;;;4.70;1.52;;;14.70;94.70;;;;;;5076350;28;20503;-58
2022/09/02 01:30:30;;;;;;;4.90;1.42;;;14.60;94.90;;;;;;5076575;28;20037;-58
2022/09/02 01:32:56;;;;;;;3.30;1.48;;;15.70;97.80;;;;;;5076604;28;20089;-58
2022/09/02 01:35:22;;;;;;;3.22;1.60;;;14.60;95.40;;;;;;5076133;28;20048;-58
2022/09/02 01:37:48;;;;;;;7.80;1.73;;;;;;;;;;5076314;28;20045;-58
2022/09/02 01:40:16;;;;;;;2.40;1.60;;;14.60;95.80;;;;;;5076266;28;20040;-58
2022/09/02 01:42:43;;;;;;;5.88;1.83;;;14.60;96.10;;;;;;5074753;28;20047;-58
2022/09/02 01:45:09;;;;;;;2.25;1.58;;;14.70;99.90;;;;;;5076149;28;20040;-58
2022/09/02 01:47:36;;;;;;;4.15;1.58;;;14.50;96.60;;;;;;5075882;28;20037;-58
2022/09/02 01:50:05;;;;;;;4.30;1.58;;;13.50;99.90;;;;;;5074891;28;20064;-58
2022/09/02 01:52:32;;;;;;;5.68;1.50;;;14.50;99.90;;;;;;5075660;28;20044;-58
2022/09/02 01:54:58;;;;;;;3.67;1.50;;;14.20;99.90;;;;;;5076081;28;20036;-58
2022/09/02 01:57:23;;;;;;;5.88;1.60;;;14.60;99.90;;;;;;5075684;28;20040;-58
2022/09/02 01:59:53;;;;;;;5.07;1.58;;;14.30;98.30;;;;;;5075753;28;20105;-58
2022/09/02 02:02:19;;;;;;;5.00;1.60;;;14.30;99.90;;;;;;5075702;28;20480;-58
2022/09/02 02:04:46;;;;;;;4.70;1.52;;;14.30;98.60;;;;;;5074258;28;20040;-58
2022/09/02 02:07:13;;;;;;;4.35;1.70;;;14.10;99.90;;;;;;5075942;28;20083;-58
2022/09/02 02:09:40;;;;;;;5.13;1.60;;;14.30;99.90;;;;;;5075906;28;20040;-58
2022/09/02 02:12:07;;;;;;;3.03;1.60;;;14.20;99.90;;;;;;5075250;28;20067;-58
2022/09/02 02:14:34;;;;;;;2.40;1.50;;;14.20;99.90;;;;;;5075669;28;20052;-58
2022/09/02 02:17:01;;;;;;;2.63;1.50;;;13.60;99.90;;;;;;5075541;28;20237;-58
2022/09/02 02:19:27;;;;;;;4.05;1.67;;;;;;;;;;5075342;28;20047;-58
2022/09/02 02:21:53;;;;;;;7.13;1.67;;;14.10;99.90;;;;;;5075657;28;20362;-58
2022/09/02 02:24:19;;;;;;;2.17;1.60;;;14.00;99.90;;;;;;5075369;28;20043;-58
2022/09/02 02:26:45;;;;;;;4.57;1.83;;;14.10;99.90;;;;;;5075023;28;20033;-58
2022/09/02 02:29:12;;;;;;;6.57;1.80;;;14.10;99.90;;;;;;5075344;28;20484;-58
2022/09/02 02:31:38;;;;;;;3.03;1.60;;;13.70;99.90;;;;;;5075198;28;20043;-58
2022/09/02 02:34:04;;;;;;;4.00;2.33;;;14.10;99.90;;;;;;5075432;28;20036;-58
2022/09/02 02:36:30;;;;;;;2.53;1.70;;;14.20;99.90;;;;;;5075331;28;20119;-58
2022/09/02 02:38:56;;;;;;;3.85;1.80;;;13.90;99.90;;;;;;5075125;28;20115;-58
2022/09/02 02:41:22;;;;;;;5.70;1.83;;;12.70;99.90;;;;;;5074899;28;20119;-58
2022/09/02 02:43:48;;;;;;;4.63;1.80;;;14.90;99.90;;;;;;5075118;28;20119;-58
2022/09/02 02:46:15;;;;;;;4.65;1.73;;;13.80;99.90;;;;;;5075180;28;20620;-58
2022/09/02 02:48:41;;;;;;;3.10;1.60;;;13.80;99.90;;;;;;5075011;28;20404;-58
2022/09/02 02:51:07;;;;;;;3.22;1.80;;;13.80;99.90;;;;;;5075142;28;20044;-58
2022/09/02 02:53:35;;;;;;;2.40;1.70;;;13.80;99.90;;;;;;5074706;28;20041;-58
2022/09/02 02:56:02;;;;;;;3.42;1.83;;;13.30;99.90;;;;;;5074917;28;20119;-58
2022/09/02 02:58:28;;;;;;;6.50;1.80;;;14.50;99.90;;;;;;5074910;28;20048;-58
2022/09/02 03:00:55;;;;;;;4.72;1.83;;;;;;;;;;5074546;28;20052;-58
2022/09/02 03:03:21;;;;;;;2.63;1.73;;;13.40;99.90;;;;;;5074543;28;20055;-58
2022/09/02 03:05:48;;;;;;;3.85;1.90;;;13.90;99.90;;;;;;5074545;28;20051;-58
2022/09/02 03:08:15;;;;;;;3.83;1.65;;;14.70;99.90;;;;;;5074352;28;20036;-58
2022/09/02 03:10:42;;;;;;;3.38;1.77;;;13.60;99.90;;;;;;5074601;28;20101;-58
2022/09/02 03:13:09;;;;;;;2.28;1.80;;;13.80;99.90;;;;;;5074495;28;20435;-58
2022/09/02 03:15:37;;;;;;;5.20;1.80;;;12.70;99.90;;;;;;5074382;28;20041;-58
2022/09/02 03:18:04;;;;;;;6.07;1.90;;;13.80;99.90;;;;;;5074451;28;20036;-58
2022/09/02 03:20:32;;;;;;;2.00;1.58;;;13.60;99.90;;;;;;5074259;28;20024;-58
2022/09/02 03:22:58;;;;;;;7.40;1.90;;;13.60;99.90;;;;;;5073404;28;20040;-58
2022/09/02 03:25:26;;;;;;;2.67;1.70;;;13.50;99.90;;;;;;5074293;28;20037;-58
2022/09/02 03:27:53;;;;;;;4.05;2.10;;;13.50;99.90;;;;;;5074004;28;20601;-58
2022/09/02 03:30:24;;;;;;;3.47;2.17;;;13.60;99.90;;;;;;5074287;28;20387;-58
2022/09/02 03:32:51;;;;;;;4.00;1.88;;;12.70;99.90;;;;;;5073984;28;20040;-58
2022/09/02 03:35:18;;;;;;;7.18;1.80;;;13.70;99.90;;;;;;5073723;28;20507;-58
2022/09/02 03:37:44;;;;;;;2.30;1.75;;;;;;;;;;5074077;28;20063;-58
2022/09/02 03:40:14;;;;;;;2.20;1.70;;;13.40;99.90;;;;;;5073765;28;20123;-58
2022/09/02 03:42:39;;;;;;;2.97;2.00;;;13.20;99.90;;;;;;5074055;28;20096;-58
2022/09/02 03:45:08;;;;;;;4.43;2.05;;;13.30;99.90;;;;;;5073897;28;20041;-58
2022/09/02 03:47:36;;;;;;;3.88;1.90;;;13.40;99.90;;;;;;5073964;28;20515;-58
2022/09/02 03:50:05;;;;;;;4.03;2.03;;;13.50;99.90;;;;;;5073495;28;20450;-58
2022/09/02 03:52:31;;;;;;;4.35;2.05;;;13.60;99.90;;;;;;5073568;28;20040;-58
2022/09/02 03:54:57;;;;;;;6.97;2.10;;;;;;;;;;5073824;28;20480;-58
2022/09/02 03:57:25;;;;;;;3.33;2.05;;;13.30;99.90;;;;;;5073593;28;20044;-58
2022/09/02 03:59:51;;;;;;;2.90;1.90;;;13.40;99.90;;;;;;5073279;28;20480;-57
2022/09/02 04:02:21;;;;;;;3.33;2.20;;;;;;;;;;5073669;28;20056;-58
2022/09/02 04:04:47;;;;;;;8.30;1.83;;;13.40;99.90;;;;;;5073302;28;20488;-58
2022/09/02 04:07:12;;;;;;;4.35;2.10;;;12.30;99.90;;;;;;5073505;28;20042;-59
2022/09/02 04:09:38;;;;;;;5.97;2.08;;;13.20;99.90;;;;;;5073438;28;20036;-60
2022/09/02 04:12:05;;;;;;;3.20;2.10;;;13.60;99.90;;;;;;5073517;28;20464;-60
2022/09/02 04:14:32;;;;;;;4.05;2.38;;;;;;;;;;5073598;28;20040;-60
2022/09/02 04:16:58;;;;;;;4.65;2.25;;;;;;;;;;5073125;28;20048;-60
2022/09/02 04:19:23;;;;;;;7.10;2.15;;;12.70;99.90;;;;;;5073412;28;20043;-60
2022/09/02 04:21:53;;;;;;;8.82;2.05;;;;;;;;;;5073382;28;20041;-60
2022/09/02 04:24:19;;;;;;;2.30;1.70;;;;;;;;;;5073435;28;20094;-60
2022/09/02 04:26:45;;;;;;;2.78;2.00;;;;;;;;;;5073172;28;20116;-61
2022/09/02 04:29:11;;;;;;;2.60;2.10;;;13.10;99.90;;;;;;5072973;28;20037;-60
2022/09/02 04:31:37;;;;;;;7.75;2.20;;;;;;;;;;5073140;28;20059;-60
2022/09/02 04:34:03;;;;;;;6.10;2.40;;;14.00;99.90;;;;;;5070433;28;20083;-60
2022/09/02 04:36:29;;;;;;;7.45;2.20;;;13.10;99.90;;;;;;5072812;28;20121;-60
2022/09/02 04:38:55;;;;;;;4.05;2.05;;;;;;;;;;5063789;28;20136;-60
2022/09/02 04:41:23;;;;;;;5.00;2.10;;;13.90;99.90;;;;;;5065504;28;20052;-60
2022/09/02 04:43:51;;;;;;;5.32;2.40;;;13.20;99.90;;;;;;5071952;28;20068;-60
2022/09/02 04:46:17;;;;;;;7.10;2.22;;;12.90;99.90;;;;;;5071206;28;20400;-60
2022/09/02 04:48:44;;;;;;;6.00;2.22;;;13.30;99.90;;;;;;5071851;28;20423;-57
2022/09/02 04:51:16;;;;;;;6.47;2.33;;;13.60;99.90;;;;;;5071711;28;20036;-58
2022/09/02 04:53:43;;;;;;;3.55;2.30;;;13.10;99.90;;;;;;5071281;28;20043;-57
2022/09/02 04:56:13;;;;;;;3.47;2.25;;;13.10;99.90;;;;;;5071589;28;20134;-58
2022/09/02 04:58:43;;;;;;;6.65;2.33;;;13.00;99.90;;;;;;5067008;28;20120;-58
2022/09/02 05:01:15;;;;;;;4.45;2.30;;;13.00;99.90;;;;;;5051122;28;20061;-58
2022/09/02 05:03:43;;;;;;;5.35;2.17;;;13.00;99.90;;;;;;5052298;28;20045;-58
2022/09/02 05:06:12;;;;;;;3.92;2.30;;;12.80;99.90;;;;;;5071513;28;20052;-58
2022/09/02 05:08:40;;;;;;;4.70;2.22;;;;;;;;;;5072382;28;20052;-58
2022/09/02 05:11:12;;;;;;;8.23;2.17;;;13.30;99.90;;;;;;5072184;28;20044;-57
2022/09/02 05:13:39;;;;;;;4.95;2.25;;;13.00;99.90;;;;;;5072932;28;20135;-58
2022/09/02 05:16:05;;;;;;;5.25;2.20;;;13.10;99.90;;;;;;5071151;28;20105;-58
2022/09/02 05:18:31;;;;;;;3.40;2.22;;;;;;;;;;5071097;28;20040;-58
2022/09/02 05:20:57;;;;;;;5.72;2.20;;;13.10;99.90;;;;;;5071807;28;20488;-58
2022/09/02 05:23:23;;;;;;;8.70;2.50;;;;;;;;;;5072116;28;20051;-58
2022/09/02 05:25:49;;;;;;;6.85;2.47;;;13.30;99.90;;;;;;5072040;28;20048;-58
2022/09/02 05:28:16;;;;;;;6.53;2.40;;;13.60;99.90;;;;;;5072145;28;20094;-58
2022/09/02 05:30:42;;;;;;;5.22;2.80;;;;;;;;;;5072491;28;20068;-57
2022/09/02 05:33:09;;;;;;;8.63;2.45;;;13.70;99.90;;;;;;5072438;28;20610;-58
2022/09/02 05:35:42;;;;;;;5.32;2.28;;;13.70;99.90;;;;;;5072492;28;20189;-58
2022/09/02 05:38:08;;;;;;;6.60;2.05;;;15.30;99.90;;;;;;5072394;28;20082;-57
2022/09/02 05:40:37;;;;;;;6.28;2.20;;;16.00;99.90;;;;;;5072336;28;20079;-58
2022/09/02 05:43:02;;;;;;;8.38;2.20;;;16.80;99.90;;;;;;5072668;28;20040;-58
2022/09/02 05:45:28;;;;;;;19.33;2.90;;;17.00;99.90;;;;;;5073274;28;20401;-58
2022/09/02 05:47:54;;;;;;;48.72;4.97;;;;;;;;;;5075908;28;20603;-58
2022/09/02 05:50:20;;;;;;;17.65;2.58;;;;;;;;;;5075957;28;20443;-58
2022/09/02 05:52:50;;;;;;;32.33;4.00;;;18.20;95.70;;;;;;5075555;28;20044;-58
2022/09/02 05:55:16;;;;;;;26.13;3.17;;;18.20;99.90;;;;;;5074321;28;20083;-58
2022/09/02 05:57:43;;;;;;;93.82;7.75;;;18.90;99.40;;;;;;5075937;28;20032;-59
2022/09/02 06:00:10;;;;;;;78.88;6.40;;;19.20;98.20;;;;;;5075620;28;20040;-58
2022/09/02 06:02:36;;;;;;;22.23;3.38;;;19.40;95.10;;;;;;5076043;28;20457;-58
2022/09/02 06:05:02;;;;;;;12.73;2.80;;;20.50;95.90;;;;;;5075308;28;20381;-59
2022/09/02 06:07:29;;;;;;;69.40;6.40;;;20.50;95.00;;;;;;5075509;28;20062;-58
2022/09/02 06:09:55;;;;;;;18.88;2.97;;;20.70;91.30;;;;;;5075440;28;20033;-59
2022/09/02 06:12:21;;;;;;;10.57;2.13;;;20.90;92.90;;;;;;5074359;28;20124;-59
2022/09/02 06:14:48;;;;;;;9.68;2.22;;;20.90;92.00;;;;;;5075505;28;20048;-59
2022/09/02 06:17:14;;;;;;;6.75;2.05;;;21.00;81.10;;;;;;5075270;28;20075;-58
2022/09/02 06:19:40;;;;;;;12.32;2.50;;;21.30;79.50;;;;;;5075412;28;20068;-59
2022/09/02 06:22:09;;;;;;;12.02;2.30;;;21.40;90.00;;;;;;5074255;28;20044;-59
2022/09/02 06:24:35;;;;;;;18.05;2.35;;;21.10;89.00;;;;;;5073953;28;20127;-59
2022/09/02 06:27:00;;;;;;;9.48;2.58;;;21.40;87.80;;;;;;5075152;28;20098;-59
2022/09/02 06:29:27;;;;;;;18.13;2.50;;;;;;;;;;5075332;28;20119;-59
2022/09/02 06:31:53;;;;;;;5.20;2.30;;;;;;;;;;5075157;28;20037;-59
2022/09/02 06:34:21;;;;;;;17.98;2.80;;;22.30;83.90;;;;;;5075121;28;20048;-59
2022/09/02 06:36:49;;;;;;;20.95;2.67;;;22.40;82.40;;;;;;5074984;28;20036;-59
2022/09/02 06:39:17;;;;;;;12.13;2.50;;;23.10;82.30;;;;;;5073691;28;20070;-59
2022/09/02 06:41:45;;;;;;;12.63;2.53;;;22.50;80.60;;;;;;5075185;28;20037;-59
2022/09/02 06:44:11;;;;;;;12.68;2.70;;;23.30;79.60;;;;;;5075122;28;20055;-59
2022/09/02 06:46:42;;;;;;;6.57;2.40;;;23.70;73.20;;;;;;5073980;28;20040;-60
2022/09/02 06:49:09;;;;;;;4.97;2.00;;;23.30;66.60;;;;;;5074749;28;20080;-59
2022/09/02 06:51:37;;;;;;;5.63;2.50;;;23.60;76.60;;;;;;5073430;28;20041;-61
2022/09/02 06:54:05;;;;;;;11.80;2.38;;;22.80;75.40;;;;;;5075049;28;20036;-59
2022/09/02 06:56:32;;;;;;;8.15;2.25;;;23.80;74.90;;;;;;5074184;28;20041;-62
2022/09/02 06:58:58;;;;;;;5.90;2.08;;;24.40;75.00;;;;;;5072860;28;20049;-61
2022/09/02 07:01:27;;;;;;;12.30;2.33;;;24.00;73.70;;;;;;5074499;28;20079;-60
2022/09/02 07:06:40;;;;;;;12.43;2.17;;;25.10;72.10;;;;;;5073263;28;20546;-63
2022/09/02 07:09:12;;;;;;;7.88;2.20;;;24.70;60.00;;;;;;5074649;28;20098;-62
2022/09/02 07:11:38;;;;;;;8.35;2.40;;;25.10;71.00;;;;;;5073018;28;20105;-62
2022/09/02 07:14:04;;;;;;;17.67;2.80;;;25.60;69.30;;;;;;5073131;28;20103;-62
2022/09/02 07:16:33;;;;;;;18.13;2.45;;;25.60;60.20;;;;;;5074494;28;20093;-63
2022/09/02 07:19:00;;;;;;;8.70;2.35;;;25.70;69.10;;;;;;5074522;28;20377;-63
2022/09/02 07:21:29;;;;;;;12.40;2.50;;;25.50;57.10;;;;;;5074078;28;20059;-62
2022/09/02 07:23:58;;;;;;;14.27;2.25;;;25.30;56.60;;;;;;5074077;28;20052;-62
2022/09/02 07:26:25;;;;;;;7.47;2.20;;;25.40;67.10;;;;;;5073958;28;20040;-62
2022/09/02 07:28:51;;;;;;;8.88;2.10;;;25.70;66.70;;;;;;5073808;28;20404;-62
2022/09/02 07:31:17;;;;;;;9.50;2.25;;;;;;;;;;5073878;28;20051;-63
2022/09/02 07:33:46;;;;;;;10.25;2.00;;;25.70;65.70;;;;;;5074030;28;20513;-59
2022/09/02 07:36:15;;;;;;;8.93;2.53;;;26.10;60.30;;;;;;5074116;28;20529;-59
2022/09/02 07:38:42;;;;;;;24.58;2.72;;;25.80;64.80;;;;;;5073702;28;20051;-59
2022/09/02 07:41:09;;;;;;;6.75;2.28;;;25.90;58.80;;;;;;5073964;28;20037;-59
2022/09/02 07:43:36;;;;;;;9.00;1.90;;;25.90;63.30;;;;;;5073557;28;20036;-59
2022/09/02 07:46:04;;;;;;;9.63;2.20;;;26.50;63.20;;;;;;5073661;28;20040;-59
2022/09/02 07:48:30;;;;;;;13.75;2.10;;;27.10;52.40;;;;;;5073738;28;20185;-59
2022/09/02 07:50:56;;;;;;;4.90;2.53;;;27.30;61.40;;;;;;5073714;28;20040;-59
2022/09/02 07:53:23;;;;;;;6.20;2.10;;;27.20;61.70;;;;;;5073573;28;20042;-59
2022/09/02 07:55:49;;;;;;;4.55;2.20;;;26.80;61.80;;;;;;5073475;28;20040;-59
2022/09/02 07:58:16;;;;;;;8.52;2.20;;;26.60;62.80;;;;;;5073468;28;20086;-58
2022/09/02 08:00:43;;;;;;;7.50;2.08;;;26.30;63.60;;;;;;5073308;28;20055;-58
2022/09/02 08:03:10;;;;;;;6.45;2.00;;;25.20;54.90;;;;;;5073597;28;20067;-58
2022/09/02 08:05:38;;;;;;;8.38;2.00;;;24.90;66.00;;;;;;5073028;28;20032;-59
2022/09/02 08:08:07;;;;;;;4.55;1.90;;;24.80;67.40;;;;;;5072159;28;20476;-59
2022/09/02 08:10:34;;;;;;;5.63;2.10;;;23.70;69.00;;;;;;5073323;28;20081;-59
2022/09/02 08:13:01;;;;;;;7.88;2.10;;;23.70;68.00;;;;;;5073380;28;20048;-59
2022/09/02 08:15:29;;;;;;;13.07;2.30;;;23.00;71.70;;;;;;5073399;28;20400;-59
2022/09/02 08:17:56;;;;;;;10.02;2.10;;;21.90;74.30;;;;;;5073264;28;20115;-59
2022/09/02 08:20:22;;;;;;;5.28;2.08;;;22.50;73.40;;;;;;5073183;28;20049;-59
2022/09/02 08:22:48;;;;;;;7.45;2.10;;;23.00;74.50;;;;;;5073361;28;20094;-59
2022/09/02 08:25:17;;;;;;;7.07;1.90;;;;;;;;;;5072866;28;20047;-59
2022/09/02 08:27:43;;;;;;;5.60;1.90;;;23.10;74.00;;;;;;5073248;28;20045;-59
2022/09/02 08:30:09;;;;;;;9.93;2.30;;;23.50;72.40;;;;;;5073046;28;20113;-59
2022/09/02 08:32:36;;;;;;;5.60;1.80;;;23.10;72.10;;;;;;5073340;28;20040;-59
2022/09/02 08:35:03;;;;;;;12.13;2.10;;;23.90;72.10;;;;;;5073063;28;20506;-63
2022/09/02 08:37:31;;;;;;;12.00;2.10;;;23.40;62.90;;;;;;5072784;28;20161;-63
2022/09/02 08:39:57;;;;;;;7.22;2.08;;;23.20;74.70;;;;;;5072919;28;20119;-63
2022/09/02 08:42:54;;;;;;;4.43;1.70;;;22.90;72.50;;;;;;5072722;28;20504;-63
2022/09/02 08:45:26;;;;;;;10.88;2.47;;;23.80;72.90;;;;;;5073261;28;20037;-63
2022/09/02 08:48:18;;;;;;;5.68;1.98;;;23.50;71.70;;;;;;5073046;28;20381;-63
2022/09/02 08:50:45;;;;;;;4.78;1.77;;;23.50;74.80;;;;;;5072768;28;20041;-63
2022/09/02 08:53:51;;;;;;;17.38;2.63;;;23.70;70.60;;;;;;5072753;28;20032;-64
2022/09/02 08:56:17;;;;;;;8.88;1.92;;;23.80;62.10;;;;;;5072594;28;20438;-63
2022/09/02 08:58:51;;;;;;;9.50;2.50;;;24.10;61.80;;;;;;5072210;28;20040;-63
2022/09/02 09:01:32;;;;;;;9.98;2.10;;;24.60;69.00;;;;;;5072731;28;20128;-63
2022/09/02 09:04:26;;;;;;;7.80;2.03;;;24.50;60.00;;;;;;5072729;28;20045;-63
2022/09/02 09:06:55;;;;;;;17.77;2.80;;;24.30;59.80;;;;;;5072984;28;20399;-63
2022/09/02 09:09:32;;;;;;;8.32;2.40;;;24.10;69.00;;;;;;5073043;28;20049;-63
2022/09/02 09:12:17;;;;;;;7.97;2.00;;;24.00;71.20;;;;;;5072840;28;20048;-63
2022/09/02 09:15:08;;;;;;;3.50;1.90;;;23.90;69.30;;;;;;5072346;28;20361;-63
2022/09/02 09:17:49;;;;;;;7.40;1.80;;;23.80;69.30;;;;;;5072373;28;20399;-64
2022/09/02 09:20:19;;;;;;;6.95;1.70;;;23.80;69.50;;;;;;5072315;28;20053;-63
2022/09/02 09:22:46;;;;;;;15.20;2.22;;;24.10;61.00;;;;;;5076489;28;20120;-63
2022/09/02 09:25:14;;;;;;;9.45;2.00;;;24.00;60.80;;;;;;5076290;28;20447;-63
2022/09/02 09:27:40;;;;;;;9.13;2.00;;;23.80;68.70;;;;;;5075368;28;20052;-63
2022/09/02 09:30:08;;;;;;;6.93;1.77;;;23.90;69.00;;;;;;5074977;28;20123;-64
2022/09/02 09:32:41;;;;;;;14.38;2.00;;;23.90;68.50;;;;;;5074848;28;20040;-64
2022/09/02 09:35:10;;;;;;;13.63;2.40;;;23.70;60.40;;;;;;5076244;28;20055;-64
2022/09/02 09:37:38;;;;;;;8.93;1.88;;;23.60;68.80;;;;;;5076253;28;20494;-64
2022/09/02 09:40:24;;;;;;;18.83;2.10;;;24.10;69.80;;;;;;5076014;28;20044;-63
2022/09/02 09:43:05;;;;;;;7.55;1.80;;;24.10;70.10;;;;;;5076406;28;20047;-63
2022/09/02 09:45:40;;;;;;;3.80;1.73;;;23.90;60.20;;;;;;5075961;28;20055;-63
2022/09/02 09:48:22;;;;;;;6.55;1.90;;;24.20;68.40;;;;;;5076261;28;20074;-63
2022/09/02 09:51:09;;;;;;;8.38;1.88;;;24.00;68.70;;;;;;5075929;28;20040;-64
2022/09/02 09:53:36;;;;;;;8.50;2.00;;;23.40;68.50;;;;;;5074798;28;20108;-64
2022/09/02 09:56:17;;;;;;;12.90;1.90;;;23.70;59.10;;;;;;5074506;28;20040;-63
2022/09/02 09:58:45;;;;;;;9.75;1.70;;;23.70;58.20;;;;;;5074772;28;20049;-63
2022/09/02 10:01:20;;;;;;;5.32;1.65;;;24.00;65.50;;;;;;5074367;28;20504;-63
2022/09/02 10:03:52;;;;;;;14.82;2.25;;;23.80;57.70;;;;;;5075844;28;20091;-63
2022/09/02 10:06:23;;;;;;;5.63;1.60;;;24.00;66.40;;;;;;5075748;28;20036;-63
2022/09/02 10:08:56;;;;;;;5.50;1.60;;;24.10;57.00;;;;;;5075579;28;20121;-64
2022/09/02 10:11:25;;;;;;;13.85;2.22;;;24.10;56.40;;;;;;5075431;28;20477;-63
2022/09/02 10:13:58;;;;;;;7.32;1.70;;;24.10;64.00;;;;;;5075784;28;20072;-64
2022/09/02 10:16:27;;;;;;;14.10;2.20;;;24.40;67.00;;;;;;5074547;28;20119;-63
2022/09/02 10:18:57;;;;;;;9.40;1.60;;;24.00;56.80;;;;;;5075794;28;20136;-63
2022/09/02 10:21:47;;;;;;;3.85;1.60;;;24.50;65.40;;;;;;5075402;28;20051;-63
2022/09/02 10:24:34;;;;;;;13.32;2.20;;;24.50;56.30;;;;;;5075467;28;20174;-63
2022/09/02 10:27:07;;;;;;;7.80;1.90;;;24.60;55.00;;;;;;5075563;28;20037;-63
2022/09/02 10:30:05;;;;;;;5.47;1.60;;;24.60;55.30;;;;;;5075375;28;20064;-63
2022/09/02 10:32:49;;;;;;;7.82;1.55;;;24.60;55.30;;;;;;5073928;28;20047;-63
2022/09/02 10:35:29;;;;;;;12.95;1.80;;;24.30;59.80;;;;;;5074807;28;20128;-63
2022/09/02 10:38:10;;;;;;;21.38;1.95;;;24.70;54.20;;;;;;5073396;28;20040;-63
2022/09/02 10:40:49;;;;;;;12.55;2.00;;;24.60;62.70;;;;;;5075283;28;20048;-65
2022/09/02 10:43:46;;;;;;;9.38;2.13;;;25.00;63.20;;;;;;5075202;28;20392;-65
2022/09/02 10:46:19;;;;;;;7.43;1.42;;;24.90;53.00;;;;;;5074727;28;20055;-64
2022/09/02 10:49:04;;;;;;;10.63;1.60;;;24.90;52.40;;;;;;5070564;28;20107;-64
2022/09/02 10:51:53;;;;;;;7.45;1.60;;;24.50;61.50;;;;;;5074803;28;20041;-64
2022/09/02 10:54:25;;;;;;;6.55;1.50;;;24.90;52.70;;;;;;5075237;28;20119;-64
2022/09/02 10:56:58;;;;;;;6.00;1.60;;;24.80;53.00;;;;;;5074957;28;20119;-63
2022/09/02 10:59:58;;;;;;;8.60;1.67;;;24.80;53.10;;;;;;5074757;28;20127;-63
2022/09/02 11:02:29;;;;;;;12.52;1.50;;;25.30;61.30;;;;;;5070568;28;20478;-63
2022/09/02 11:05:03;;;;;;;10.85;1.80;;;25.20;61.70;;;;;;5074534;28;20049;-63
2022/09/02 11:07:35;;;;;;;6.63;1.73;;;25.00;53.10;;;;;;5074407;28;20036;-64
2022/09/02 11:10:26;;;;;;;14.70;1.65;;;25.00;53.10;;;;;;5074708;28;20043;-64
2022/09/02 11:13:10;;;;;;;10.02;1.70;;;25.00;52.70;;;;;;5074751;28;20050;-64
2022/09/02 11:15:56;;;;;;;3.22;1.48;;;24.90;53.60;;;;;;5074656;28;20097;-64
2022/09/02 11:18:34;;;;;;;4.40;1.70;;;24.90;53.60;;;;;;5074334;28;20080;-64
2022/09/02 11:21:27;;;;;;;12.65;1.75;;;24.90;62.00;;;;;;5074466;28;20043;-64
2022/09/02 11:24:14;;;;;;;6.40;1.70;;;25.00;61.50;;;;;;5074240;28;20045;-64
2022/09/02 11:27:00;;;;;;;6.25;1.58;;;24.90;52.80;;;;;;5073887;28;20040;-64
2022/09/02 11:29:59;;;;;;;8.25;2.00;;;24.90;53.20;;;;;;5073171;28;20090;-64
2022/09/02 11:32:33;;;;;;;2.80;1.80;;;24.90;60.30;;;;;;5073455;28;20396;-64
2022/09/02 11:35:06;;;;;;;5.07;1.70;;;25.10;60.30;;;;;;5073622;28;20048;-64
2022/09/02 11:38:16;;;;;;;8.13;1.73;;;24.90;53.30;;;;;;5073793;28;20040;-65
2022/09/02 11:41:09;;;;;;;6.72;1.65;;;25.00;53.10;;;;;;5051582;28;20503;-64
2022/09/02 11:44:13;;;;;;;11.65;2.33;;;25.20;52.80;;;;;;5051264;28;20056;-64
2022/09/02 11:46:55;;;;;;;13.05;1.80;;;25.40;52.50;;;;;;5051700;28;20124;-65
2022/09/02 11:49:52;;;;;;;16.75;2.60;;;25.40;57.60;;;;;;5050816;28;20049;-59
2022/09/02 11:52:23;;;;;;;5.80;1.65;;;25.60;51.20;;;;;;5051483;28;20056;-59
2022/09/02 11:55:04;;;;;;;7.65;1.90;;;25.60;51.80;;;;;;5051453;28;20044;-59
2022/09/02 11:57:31;;;;;;;4.28;1.60;;;25.70;51.70;;;;;;5051356;28;20133;-59
2022/09/02 11:59:57;;;;;;;9.27;1.60;;;25.50;59.40;;;;;;5051124;28;20692;-59
2022/09/02 12:03:09;;;;;;;6.70;1.75;;;25.70;51.80;;;;;;5051360;28;20124;-59
2022/09/02 12:05:36;;;;;;;6.28;1.75;;;25.80;51.20;;;;;;5034214;28;20132;-59
2022/09/02 12:08:03;;;;;;;3.70;1.48;;;25.80;51.40;;;;;;5051149;28;20049;-59
2022/09/02 12:10:42;;;;;;;10.27;1.70;;;25.80;58.90;;;;;;5054249;28;20217;-59
2022/09/02 12:13:40;;;;;;;4.63;1.65;;;26.10;56.70;;;;;;5071905;28;20036;-59
2022/09/02 12:16:14;;;;;;;4.47;1.60;;;25.90;57.60;;;;;;5073076;28;20044;-59
2022/09/02 12:19:06;;;;;;;6.07;1.50;;;25.90;50.40;;;;;;5073368;28;20111;-59
2022/09/02 12:21:34;;;;;;;4.70;1.65;;;26.10;50.90;;;;;;5073083;28;20163;-59
2022/09/02 12:23:59;;;;;;;8.60;2.10;;;26.10;57.30;;;;;;5073063;28;20051;-59
2022/09/02 12:26:37;;;;;;;6.15;1.63;;;26.30;50.00;;;;;;5073040;28;20040;-59
2022/09/02 12:29:18;;;;;;;7.32;1.60;;;26.40;50.20;;;;;;5073263;28;20342;-59
2022/09/02 12:31:46;;;;;;;5.85;1.77;;;26.50;49.40;;;;;;5073071;28;20043;-59
2022/09/02 12:34:24;;;;;;;7.40;1.80;;;26.40;49.60;;;;;;5073224;28;20040;-60
2022/09/02 12:36:58;;;;;;;7.15;1.80;;;26.40;49.30;;;;;;5072955;28;20040;-60
2022/09/02 12:39:26;;;;;;;8.25;1.85;;;26.30;56.00;;;;;;5073156;28;20044;-60
2022/09/02 12:42:09;;;;;;;7.30;1.67;;;26.50;49.20;;;;;;5073235;28;20388;-59
2022/09/02 12:44:54;;;;;;;4.82;1.70;;;27.70;56.20;;;;;;5072965;28;20040;-59
2022/09/02 12:47:38;;;;;;;5.38;1.80;;;26.90;48.80;;;;;;5072985;28;20036;-64
2022/09/02 12:50:24;;;;;;;11.85;1.98;;;27.00;48.70;;;;;;5071867;28;20045;-64
2022/09/02 12:52:52;;;;;;;8.30;1.70;;;27.20;48.10;;;;;;5072933;28;20040;-65
2022/09/02 12:55:27;;;;;;;8.57;1.80;;;27.20;48.10;;;;;;5073616;28;20084;-64
2022/09/02 12:58:08;;;;;;;7.03;1.75;;;27.10;47.40;;;;;;5076887;28;20039;-65
2022/09/02 13:00:34;;;;;;;7.07;1.95;;;27.00;47.70;;;;;;5076971;28;20053;-64
2022/09/02 13:03:18;;;;;;;10.63;1.90;;;26.80;47.90;;;;;;5077200;28;20051;-65
2022/09/02 13:06:16;;;;;;;4.95;1.90;;;26.60;48.00;;;;;;5076467;28;20048;-64
2022/09/02 13:08:44;;;;;;;10.25;1.80;;;26.30;48.30;;;;;;5076803;28;20184;-64
2022/09/02 13:11:48;;;;;;;19.25;2.63;;;26.40;49.00;;;;;;5076818;28;20043;-64
2022/09/02 13:14:36;;;;;;;5.13;1.50;;;26.60;48.70;;;;;;5076927;28;20044;-64
2022/09/02 13:17:28;;;;;;;11.90;1.98;;;27.30;54.80;;;;;;5076583;28;20495;-64